Time;durP1;ratioP1;P1;durP2;ratioP2;P2;SDS_P1;SDS_P2;PMS_P1;PMS_P2;Temp;Humidity;BMP_temperature;BMP_pressure;BME280_temperature;BME280_humidity;BME280_pressure;Samples;Min_cycle;Max_cycle;Signal;HPM_P1;HPM_P2
2023/02/19 00:01:09;;;;;;;7.82;5.85;;;;;10.20;99053.00;;;;5072049;28;20040;-61
2023/02/19 00:03:36;;;;;;;6.75;5.50;;;;;10.20;99052.00;;;;5071885;28;20045;-61
2023/02/19 00:06:09;;;;;;;7.78;5.35;;;;;10.20;99037.00;;;;5070178;28;20457;-61
2023/02/19 00:08:37;;;;;;;5.70;5.10;;;;;10.20;99032.00;;;;5071918;28;20479;-60
2023/02/19 00:11:10;;;;;;;6.13;5.57;;;;;10.20;99044.00;;;;5071998;28;20078;-63
2023/02/19 00:13:39;;;;;;;6.05;5.45;;;;;10.20;99036.00;;;;5071765;28;20124;-62
2023/02/19 00:16:14;;;;;;;9.10;5.60;;;;;10.20;99041.00;;;;5071248;28;20432;-60
2023/02/19 00:18:42;;;;;;;7.88;5.63;;;;;10.20;99037.00;;;;5072257;28;20045;-60
2023/02/19 00:21:09;;;;;;;5.60;5.10;;;;;10.20;99035.00;;;;5075027;28;20086;-61
2023/02/19 00:23:36;;;;;;;5.97;5.38;;;;;10.20;99033.00;;;;5075754;28;20040;-60
2023/02/19 00:26:08;;;;;;;5.88;4.85;;;;;10.20;99027.00;;;;5075241;28;20041;-62
2023/02/19 00:28:45;;;;;;;5.70;4.80;;;;;10.10;99033.00;;;;5074597;28;20044;-61
2023/02/19 00:31:18;;;;;;;6.20;5.60;;;;;10.20;99032.00;;;;5075678;28;20045;-61
2023/02/19 00:33:46;;;;;;;6.28;5.63;;;;;10.20;99025.00;;;;5075705;28;20481;-61
2023/02/19 00:36:14;;;;;;;5.53;5.03;;;;;10.20;99040.00;;;;5075033;28;20040;-62
2023/02/19 00:38:42;;;;;;;6.65;4.90;;;;;10.20;99040.00;;;;5075551;28;20107;-61
2023/02/19 00:41:18;;;;;;;7.72;5.25;;;;;10.20;99037.00;;;;5075558;28;20138;-61
2023/02/19 00:43:53;;;;;;;5.22;4.40;;;;;10.30;99030.00;;;;5075362;28;20045;-62
2023/02/19 00:46:28;;;;;;;5.32;4.80;;;;;10.30;99028.00;;;;5074851;28;20049;-61
2023/02/19 00:48:56;;;;;;;6.00;4.60;;;;;10.20;99042.00;;;;5075378;28;20040;-61
2023/02/19 00:51:25;;;;;;;5.00;4.50;;;;;10.20;99040.00;;;;5073823;28;20115;-58
2023/02/19 00:53:52;;;;;;;5.53;4.68;;;;;10.20;99034.00;;;;5073896;28;20098;-60
2023/02/19 00:56:19;;;;;;;5.90;5.30;;;;;10.20;99042.00;;;;5074749;28;20516;-60
2023/02/19 00:58:46;;;;;;;5.93;5.25;;;;;10.20;99048.00;;;;5073911;28;20053;-60
2023/02/19 01:01:14;;;;;;;5.47;4.97;;;;;10.20;99041.00;;;;5074353;28;20058;-61
2023/02/19 01:03:40;;;;;;;5.68;5.07;;;;;10.20;99060.00;;;;5073572;28;20056;-62
2023/02/19 01:06:09;;;;;;;6.32;5.25;;;;;10.10;99065.00;;;;5073389;28;20049;-61
2023/02/19 01:08:36;;;;;;;6.82;5.28;;;;;10.20;99060.00;;;;5073847;28;20054;-61
2023/02/19 01:11:04;;;;;;;7.35;5.57;;;;;10.20;99055.00;;;;5057224;28;20048;-62
2023/02/19 01:13:32;;;;;;;6.40;5.55;;;;;10.20;99035.00;;;;5075172;28;20094;-62
2023/02/19 01:16:16;;;;;;;5.95;5.38;;;;;10.20;99038.00;;;;5074305;28;20511;-62
2023/02/19 01:18:44;;;;;;;7.35;5.80;;;;;10.10;99019.00;;;;5075008;28;20551;-62
2023/02/19 01:21:13;;;;;;;7.85;6.03;;;;;10.10;99006.00;;;;5056972;28;20519;-62
2023/02/19 01:23:40;;;;;;;6.93;5.93;;;;;10.10;99017.00;;;;5073333;28;20110;-62
2023/02/19 01:26:11;;;;;;;6.55;5.25;;;;;10.00;99024.00;;;;5074182;28;20041;-62
2023/02/19 01:28:38;;;;;;;7.05;5.93;;;;;9.90;99027.00;;;;5074706;28;20459;-62
2023/02/19 01:31:07;;;;;;;6.82;6.18;;;;;9.90;99029.00;;;;5073907;28;20105;-62
2023/02/19 01:33:34;;;;;;;9.02;6.22;;;;;9.90;99026.00;;;;5075496;28;20570;-62
2023/02/19 01:36:05;;;;;;;6.25;5.63;;;;;9.90;99015.00;;;;5073558;28;20040;-62
2023/02/19 01:38:32;;;;;;;6.15;5.55;;;;;10.00;99022.00;;;;5073930;28;20049;-61
2023/02/19 01:41:02;;;;;;;7.00;5.93;;;;;10.00;99030.00;;;;5074883;28;20057;-62
2023/02/19 01:43:31;;;;;;;6.97;6.25;;;;;10.10;99024.00;;;;5075251;28;20056;-62
2023/02/19 01:45:58;;;;;;;10.65;5.78;;;;;10.10;99018.00;;;;5075144;28;20049;-62
2023/02/19 01:48:30;;;;;;;7.47;5.80;;;;;10.10;99012.00;;;;5077313;28;20040;-62
2023/02/19 01:51:04;;;;;;;7.63;5.38;;;;;10.20;99015.00;;;;5079465;28;20052;-62
2023/02/19 01:53:36;;;;;;;5.82;5.13;;;;;10.20;99024.00;;;;5082311;28;20048;-62
2023/02/19 01:56:04;;;;;;;5.88;4.50;;;;;10.20;99012.00;;;;5077540;28;20240;-61
2023/02/19 01:58:33;;;;;;;5.47;4.32;;;;;10.20;99002.00;;;;5072929;28;20059;-62
2023/02/19 02:01:03;;;;;;;5.05;4.55;;;;;10.10;99008.00;;;;5074238;28;20129;-62
2023/02/19 02:03:30;;;;;;;6.03;5.07;;;;;10.20;99002.00;;;;5072775;28;20046;-62
2023/02/19 02:06:10;;;;;;;5.38;4.88;;;;;10.10;99007.00;;;;5072105;28;20051;-62
2023/02/19 02:11:23;;;;;;;5.57;5.03;;;;;10.20;99016.00;;;;5074113;28;20044;-62
2023/02/19 02:13:50;;;;;;;5.70;4.43;;;;;10.20;98997.00;;;;5072647;28;20044;-62
2023/02/19 02:16:32;;;;;;;5.25;4.70;;;;;10.20;98994.00;;;;5073295;28;20090;-62
2023/02/19 02:19:08;;;;;;;4.85;4.35;;;;;10.20;98987.00;;;;5072493;28;20442;-63
2023/02/19 02:22:00;;;;;;;6.05;4.97;;;;;10.20;98978.00;;;;5073554;28;20040;-61
2023/02/19 02:24:46;;;;;;;5.97;5.10;;;;;10.10;98982.00;;;;5071740;28;20064;-62
2023/02/19 02:27:16;;;;;;;7.03;5.30;;;;;10.10;98984.00;;;;5072066;28;20059;-62
2023/02/19 02:30:04;;;;;;;10.55;6.25;;;;;10.00;98984.00;;;;5072338;28;20455;-62
2023/02/19 02:32:52;;;;;;;10.80;5.97;;;;;10.00;98968.00;;;;5073301;28;20047;-62
2023/02/19 02:35:29;;;;;;;8.05;5.68;;;;;10.00;98968.00;;;;5071357;28;20140;-61
2023/02/19 02:38:01;;;;;;;7.55;6.05;;;;;10.00;98957.00;;;;5071946;28;20502;-62
2023/02/19 02:40:29;;;;;;;7.37;5.97;;;;;10.00;98951.00;;;;5072054;28;20055;-62
2023/02/19 02:42:57;;;;;;;7.05;6.32;;;;;10.00;98957.00;;;;5054966;28;20074;-61
2023/02/19 02:45:34;;;;;;;5.93;5.43;;;;;10.00;98958.00;;;;5071513;28;20528;-61
2023/02/19 02:48:21;;;;;;;6.63;5.93;;;;;10.00;98972.00;;;;5071906;28;20075;-61
2023/02/19 02:50:54;;;;;;;7.18;5.70;;;;;10.00;98970.00;;;;5071874;28;20135;-62
2023/02/19 02:56:15;;;;;;;7.35;5.60;;;;;10.00;98971.00;;;;5070810;28;20508;-62
2023/02/19 02:58:43;;;;;;;6.63;5.82;;;;;10.00;98966.00;;;;5071520;28;20049;-61
2023/02/19 03:04:12;;;;;;;6.80;5.85;;;;;10.00;98950.00;;;;5071212;28;20468;-62
2023/02/19 03:06:41;;;;;;;6.00;5.40;;;;;10.00;98956.00;;;;5072683;28;20094;-62
2023/02/19 03:09:12;;;;;;;5.93;5.32;;;;;10.00;98962.00;;;;5071430;28;20040;-62
2023/02/19 03:20:21;;;;;;;6.43;5.28;;;;;10.10;98943.00;;;;5071147;28;20055;-62
2023/02/19 03:22:50;;;;;;;5.53;4.85;;;;;10.20;98950.00;;;;5071108;28;20493;-61
2023/02/19 03:28:15;;;;;;;6.50;5.40;;;;;10.20;98950.00;;;;5071118;28;20087;-62
2023/02/19 03:30:51;;;;;;;7.25;5.35;;;;;10.20;98955.00;;;;5070998;28;20287;-62
2023/02/19 03:33:23;;;;;;;5.63;4.93;;;;;10.20;98950.00;;;;5070960;28;20132;-62
2023/02/19 03:35:56;;;;;;;5.10;4.70;;;;;10.20;98936.00;;;;5071646;28;20051;-62
2023/02/19 03:38:35;;;;;;;5.43;4.93;;;;;10.20;98944.00;;;;5070960;28;20051;-62
2023/02/19 03:41:05;;;;;;;5.00;4.50;;;;;10.20;98939.00;;;;5070833;28;20535;-61
2023/02/19 03:43:52;;;;;;;4.88;4.40;;;;;10.20;98943.00;;;;5070734;28;20131;-62
2023/02/19 03:46:34;;;;;;;4.95;4.22;;;;;10.20;98946.00;;;;5070285;28;20591;-62
2023/02/19 03:49:12;;;;;;;4.40;4.00;;;;;10.20;98956.00;;;;5070886;28;20052;-62
2023/02/19 03:52:15;;;;;;;4.63;4.22;;;;;10.20;98944.00;;;;5070889;28;20139;-61
2023/02/19 03:54:56;;;;;;;4.60;4.18;;;;;10.30;98954.00;;;;5039093;28;20051;-62
2023/02/19 03:57:36;;;;;;;5.18;4.57;;;;;10.20;98948.00;;;;5070659;28;20049;-62
2023/02/19 04:00:32;;;;;;;5.57;4.63;;;;;10.30;98958.00;;;;5070750;28;20063;-61
2023/02/19 04:03:14;;;;;;;4.13;3.80;;;;;10.20;98958.00;;;;5042706;28;20063;-62
2023/02/19 04:05:46;;;;;;;3.97;3.60;;;;;10.30;98962.00;;;;5071325;28;20442;-62
2023/02/19 04:08:17;;;;;;;4.00;3.60;;;;;10.20;98966.00;;;;5070716;28;20052;-62
2023/02/19 04:10:51;;;;;;;3.60;3.30;;;;;10.20;98968.00;;;;5070711;28;20455;-61
2023/02/19 04:13:26;;;;;;;3.78;3.47;;;;;10.20;98955.00;;;;5070428;28;20114;-61
2023/02/19 04:15:56;;;;;;;4.35;3.53;;;;;10.20;98964.00;;;;5071619;28;20053;-62
2023/02/19 04:18:28;;;;;;;3.90;3.42;;;;;10.10;98964.00;;;;5072005;28;20049;-61
2023/02/19 04:20:56;;;;;;;3.42;3.13;;;;;10.10;98953.00;;;;5071823;28;20049;-62
2023/02/19 04:23:26;;;;;;;3.65;3.35;;;;;10.20;98963.00;;;;5072217;28;20045;-62
2023/02/19 04:25:59;;;;;;;3.17;2.90;;;;;10.20;98959.00;;;;5071045;28;20390;-62
2023/02/19 04:28:27;;;;;;;3.00;2.80;;;;;10.20;98969.00;;;;5071813;28;20052;-62
2023/02/19 04:30:54;;;;;;;3.50;3.20;;;;;10.20;98966.00;;;;5071743;28;20044;-62
2023/02/19 04:33:20;;;;;;;3.72;3.42;;;;;10.20;98966.00;;;;5071577;28;20117;-62
2023/02/19 04:35:47;;;;;;;3.70;3.22;;;;;10.20;98987.00;;;;5071242;28;20102;-62
2023/02/19 04:38:14;;;;;;;3.67;3.00;;;;;10.20;98977.00;;;;5071421;28;20513;-62
2023/02/19 04:40:41;;;;;;;6.50;3.50;;;;;10.20;98987.00;;;;5071679;28;20041;-61
2023/02/19 04:43:07;;;;;;;3.33;3.03;;;;;10.10;98968.00;;;;5071882;28;20497;-62
2023/02/19 04:45:36;;;;;;;3.85;3.45;;;;;10.10;98973.00;;;;5071793;28;20043;-62
2023/02/19 04:48:03;;;;;;;4.10;3.70;;;;;10.10;98987.00;;;;5072633;28;20497;-61
2023/02/19 04:50:30;;;;;;;6.18;3.28;;;;;10.00;98983.00;;;;5072841;28;20051;-61
2023/02/19 04:52:57;;;;;;;3.83;3.47;;;;;10.00;99001.00;;;;5073380;28;20123;-60
2023/02/19 04:55:23;;;;;;;3.22;3.03;;;;;10.00;98982.00;;;;5072616;28;20062;-63
2023/02/19 04:57:50;;;;;;;3.50;3.20;;;;;10.00;98988.00;;;;5072579;28;20405;-61
2023/02/19 05:00:16;;;;;;;3.28;2.97;;;;;10.00;98989.00;;;;5073482;28;20049;-60
2023/02/19 05:02:43;;;;;;;3.78;3.47;;;;;10.00;98988.00;;;;5074541;28;20041;-61
2023/02/19 05:05:10;;;;;;;3.17;2.88;;;;;10.00;98998.00;;;;5071903;28;20045;-61
2023/02/19 05:07:36;;;;;;;3.70;3.40;;;;;10.00;98998.00;;;;5077445;28;20060;-61
2023/02/19 05:10:03;;;;;;;4.53;3.72;;;;;10.00;98998.00;;;;5080166;28;20048;-61
2023/02/19 05:12:30;;;;;;;4.22;3.83;;;;;10.00;98998.00;;;;5075684;28;20052;-61
2023/02/19 05:14:56;;;;;;;4.40;4.00;;;;;10.10;99005.00;;;;5076182;28;20044;-60
2023/02/19 05:17:23;;;;;;;4.63;3.83;;;;;10.10;99009.00;;;;5076820;28;20044;-61
2023/02/19 05:19:49;;;;;;;4.75;4.13;;;;;10.00;99006.00;;;;5075541;28;20048;-61
2023/02/19 05:22:16;;;;;;;4.32;3.92;;;;;10.00;99016.00;;;;5057597;28;20405;-61
2023/02/19 05:24:42;;;;;;;4.97;4.35;;;;;10.10;99017.00;;;;5074390;28;20091;-61
2023/02/19 05:27:09;;;;;;;5.30;4.80;;;;;10.10;99030.00;;;;5075075;28;20106;-62
2023/02/19 05:29:35;;;;;;;5.18;4.68;;;;;10.00;99014.00;;;;5075167;28;20544;-60
2023/02/19 05:32:02;;;;;;;5.65;5.05;;;;;10.00;99019.00;;;;5074786;28;20040;-61
2023/02/19 05:34:28;;;;;;;5.35;4.85;;;;;10.00;99019.00;;;;5074095;28;20032;-62
2023/02/19 05:36:55;;;;;;;5.80;5.20;;;;;10.10;99035.00;;;;5075211;28;20448;-63
2023/02/19 05:39:21;;;;;;;6.15;5.28;;;;;10.10;99018.00;;;;5075965;28;20110;-62
2023/02/19 05:41:48;;;;;;;6.03;5.20;;;;;10.10;99025.00;;;;5085585;28;20044;-62
2023/02/19 05:44:14;;;;;;;5.25;4.70;;;;;10.10;99025.00;;;;5083891;28;20044;-61
2023/02/19 05:46:41;;;;;;;6.40;5.13;;;;;10.10;99042.00;;;;5074671;28;20056;-61
2023/02/19 05:49:07;;;;;;;5.13;4.53;;;;;10.00;99035.00;;;;5074651;28;20033;-61
2023/02/19 05:51:34;;;;;;;6.63;4.75;;;;;10.00;99039.00;;;;5074565;28;20055;-61
2023/02/19 05:54:00;;;;;;;4.97;4.47;;;;;10.00;99037.00;;;;5074605;28;20048;-62
2023/02/19 05:56:31;;;;;;;5.57;4.60;;;;;10.00;99042.00;;;;5074399;28;20044;-60
2023/02/19 05:59:00;;;;;;;5.75;4.72;;;;;10.00;99050.00;;;;5073268;28;20048;-62
2023/02/19 06:01:28;;;;;;;6.45;4.10;;;;;10.00;99054.00;;;;5074241;28;20119;-62
2023/02/19 06:03:55;;;;;;;4.63;4.20;;;;;10.00;99057.00;;;;5073983;28;20055;-62
2023/02/19 06:06:24;;;;;;;5.13;4.50;;;;;10.00;99058.00;;;;5073511;28;20120;-62
2023/02/19 06:08:50;;;;;;;4.72;4.18;;;;;10.00;99062.00;;;;5072958;28;20040;-62
2023/02/19 06:11:17;;;;;;;5.53;4.55;;;;;10.00;99060.00;;;;5072813;28;20049;-62
2023/02/19 06:13:45;;;;;;;5.25;4.70;;;;;10.00;99070.00;;;;5074013;28;20036;-61
2023/02/19 06:16:11;;;;;;;5.30;4.80;;;;;10.00;99063.00;;;;5073286;28;20049;-62
2023/02/19 06:18:41;;;;;;;5.65;5.07;;;;;10.00;99068.00;;;;5073234;28;20123;-62
2023/02/19 06:21:10;;;;;;;5.47;4.90;;;;;10.00;99068.00;;;;5072552;28;20049;-62
2023/02/19 06:23:37;;;;;;;5.55;5.05;;;;;10.00;99077.00;;;;5073648;28;20124;-62
2023/02/19 06:26:19;;;;;;;5.65;5.13;;;;;10.10;99070.00;;;;5072907;28;20044;-62
2023/02/19 06:28:47;;;;;;;6.38;5.50;;;;;10.00;99079.00;;;;5073799;28;20102;-63
2023/02/19 06:31:14;;;;;;;6.10;5.50;;;;;10.00;99086.00;;;;5073908;28;20041;-63
2023/02/19 06:33:41;;;;;;;6.75;5.93;;;;;10.10;99083.00;;;;5073561;28;20573;-62
2023/02/19 06:36:14;;;;;;;6.55;5.82;;;;;10.10;99088.00;;;;5072894;28;20037;-63
2023/02/19 06:38:40;;;;;;;5.75;5.15;;;;;10.10;99078.00;;;;5073539;28;20044;-62
2023/02/19 06:41:08;;;;;;;6.30;5.50;;;;;10.10;99096.00;;;;5073355;28;20052;-61
2023/02/19 06:43:35;;;;;;;6.18;5.25;;;;;10.10;99097.00;;;;5072093;28;20114;-62
2023/02/19 06:46:04;;;;;;;6.82;5.43;;;;;10.10;99098.00;;;;5072894;28;20049;-61
2023/02/19 06:48:32;;;;;;;6.10;5.50;;;;;10.10;99102.00;;;;5073336;28;20044;-61
2023/02/19 06:50:58;;;;;;;6.20;5.13;;;;;10.10;99113.00;;;;5073161;28;20410;-61
2023/02/19 06:53:25;;;;;;;6.85;5.00;;;;;10.10;99107.00;;;;5072995;28;20041;-61
2023/02/19 06:56:03;;;;;;;7.70;5.70;;;;;10.20;99117.00;;;;5072681;28;20037;-61
2023/02/19 06:58:31;;;;;;;6.88;5.72;;;;;10.20;99119.00;;;;5073190;28;20040;-63
2023/02/19 07:00:58;;;;;;;6.00;5.35;;;;;10.20;99114.00;;;;5072805;28;20044;-62
2023/02/19 07:03:25;;;;;;;9.52;6.38;;;;;10.20;99107.00;;;;5072743;28;20497;-62
2023/02/19 07:05:52;;;;;;;9.52;5.47;;;;;10.20;99110.00;;;;5071941;28;20040;-61
2023/02/19 07:08:18;;;;;;;9.63;5.53;;;;;10.20;99124.00;;;;5072531;28;20543;-62
2023/02/19 07:10:53;;;;;;;6.47;5.22;;;;;10.20;99122.00;;;;5071438;28;20109;-61
2023/02/19 07:13:19;;;;;;;7.93;5.38;;;;;10.20;99137.00;;;;5072670;28;20394;-62
2023/02/19 07:15:46;;;;;;;8.82;5.63;;;;;10.20;99144.00;;;;5072044;28;20106;-62
2023/02/19 07:18:12;;;;;;;5.88;5.13;;;;;10.20;99145.00;;;;5072620;28;20053;-61
2023/02/19 07:20:39;;;;;;;6.95;5.63;;;;;10.20;99140.00;;;;5071277;28;20048;-62
2023/02/19 07:23:05;;;;;;;7.75;6.05;;;;;10.20;99152.00;;;;5072409;28;20386;-61
2023/02/19 07:25:32;;;;;;;6.82;5.60;;;;;10.20;99149.00;;;;5071705;28;20071;-62
2023/02/19 07:27:58;;;;;;;7.28;5.60;;;;;10.20;99148.00;;;;5071683;28;20040;-62
2023/02/19 07:30:25;;;;;;;6.70;5.82;;;;;10.20;99153.00;;;;5072799;28;20048;-61
2023/02/19 07:32:51;;;;;;;6.38;5.68;;;;;10.20;99158.00;;;;5073689;28;20052;-62
2023/02/19 07:35:18;;;;;;;7.07;5.68;;;;;10.20;99155.00;;;;5072576;28;20075;-62
2023/02/19 07:37:44;;;;;;;7.05;5.95;;;;;10.20;99155.00;;;;5072135;28;20548;-62
2023/02/19 07:40:11;;;;;;;7.00;5.97;;;;;10.30;99175.00;;;;5073397;28;20048;-62
2023/02/19 07:42:38;;;;;;;8.68;5.82;;;;;10.30;99175.00;;;;5072995;28;20044;-63
2023/02/19 07:45:05;;;;;;;11.13;6.00;;;;;10.30;99170.00;;;;5072049;28;20059;-61
2023/02/19 07:47:31;;;;;;;10.23;6.63;;;;;10.40;99171.00;;;;5072233;28;20433;-62
2023/02/19 07:49:58;;;;;;;8.18;5.75;;;;;10.40;99166.00;;;;5071997;28;20052;-63
2023/02/19 07:52:25;;;;;;;6.35;5.75;;;;;10.50;99168.00;;;;5072030;28;20090;-63
2023/02/19 07:54:51;;;;;;;8.18;5.75;;;;;10.50;99171.00;;;;5071512;28;20493;-61
2023/02/19 07:57:18;;;;;;;7.82;5.70;;;;;10.50;99166.00;;;;5072083;28;20051;-63
2023/02/19 07:59:44;;;;;;;7.78;5.57;;;;;10.50;99169.00;;;;5072331;28;20044;-63
2023/02/19 08:05:01;;;;;;;7.15;5.43;;;;;10.60;99197.00;;;;5071587;28;20410;-62
2023/02/19 08:07:35;;;;;;;8.13;5.65;;;;;10.70;99192.00;;;;5072027;28;20044;-61
2023/02/19 08:15:51;;;;;;;8.38;6.03;;;;;10.70;99199.00;;;;5071505;28;20460;-61
2023/02/19 08:18:21;;;;;;;;;;;;;10.70;99200.00;;;;5054610;28;20041;-61
2023/02/19 08:20:49;;;;;;;6.65;5.15;;;;;10.70;99213.00;;;;5072073;28;19921;-62
2023/02/19 08:23:16;;;;;;;6.45;5.25;;;;;10.70;99213.00;;;;5072050;28;20493;-62
2023/02/19 08:25:43;;;;;;;9.63;5.05;;;;;10.70;99203.00;;;;5071200;28;20067;-61
2023/02/19 08:28:10;;;;;;;6.28;4.45;;;;;10.70;99199.00;;;;5072117;28;20036;-61
2023/02/19 08:30:39;;;;;;;6.00;4.30;;;;;10.70;99206.00;;;;5072254;28;20041;-61
2023/02/19 08:33:06;;;;;;;4.28;3.88;;;;;10.80;99204.00;;;;5070984;28;20044;-60
2023/02/19 08:35:35;;;;;;;6.45;4.22;;;;;10.70;99215.00;;;;5071727;28;20045;-62
2023/02/19 08:38:04;;;;;;;6.03;3.80;;;;;10.70;99215.00;;;;5071958;28;20041;-62
2023/02/19 08:40:31;;;;;;;6.78;3.92;;;;;10.70;99211.00;;;;5072634;28;20045;-61
2023/02/19 08:43:07;;;;;;;8.18;4.65;;;;;10.80;99210.00;;;;5075758;28;20447;-62
2023/02/19 08:45:36;;;;;;;5.80;3.97;;;;;10.90;99222.00;;;;5074921;28;20477;-62
2023/02/19 08:48:03;;;;;;;7.78;4.18;;;;;11.00;99220.00;;;;5075464;28;20048;-62
2023/02/19 08:50:30;;;;;;;7.25;4.22;;;;;11.00;99223.00;;;;5075633;28;20048;-61
2023/02/19 08:53:00;;;;;;;6.88;4.30;;;;;11.00;99221.00;;;;5075466;28;20046;-62
2023/02/19 08:55:26;;;;;;;6.75;3.97;;;;;11.00;99235.00;;;;5074750;28;20043;-60
2023/02/19 08:57:53;;;;;;;6.47;4.57;;;;;11.10;99240.00;;;;5075232;28;20503;-61
2023/02/19 09:00:20;;;;;;;8.57;4.47;;;;;11.10;99236.00;;;;5075361;28;20059;-61
2023/02/19 09:02:47;;;;;;;5.93;4.13;;;;;11.20;99245.00;;;;5075387;28;20036;-61
2023/02/19 09:05:14;;;;;;;7.63;4.50;;;;;11.30;99235.00;;;;5074635;28;20044;-62
2023/02/19 09:07:41;;;;;;;5.47;4.32;;;;;11.30;99241.00;;;;5074333;28;20040;-62
2023/02/19 09:10:09;;;;;;;4.90;3.97;;;;;11.30;99257.00;;;;5075843;28;20486;-63
2023/02/19 09:12:37;;;;;;;5.88;4.25;;;;;11.30;99251.00;;;;5074688;28;20048;-60
2023/02/19 09:15:04;;;;;;;7.03;4.20;;;;;11.40;99251.00;;;;5075293;28;20044;-61
2023/02/19 09:17:31;;;;;;;7.47;4.20;;;;;11.40;99253.00;;;;5076252;28;20052;-60
2023/02/19 09:19:57;;;;;;;7.50;4.63;;;;;11.50;99267.00;;;;5077517;28;20098;-62
2023/02/19 09:22:24;;;;;;;7.22;4.85;;;;;11.50;99266.00;;;;5076743;28;20052;-62
2023/02/19 09:24:50;;;;;;;9.57;5.93;;;;;11.60;99283.00;;;;5075728;28;20044;-62
2023/02/19 09:27:18;;;;;;;7.53;4.85;;;;;11.70;99276.00;;;;5076969;28;20040;-62
2023/02/19 09:29:45;;;;;;;10.02;5.38;;;;;11.70;99277.00;;;;5077043;28;20101;-62
2023/02/19 09:32:12;;;;;;;9.15;4.93;;;;;11.60;99270.00;;;;5074196;28;20040;-61
2023/02/19 09:34:39;;;;;;;11.30;6.32;;;;;11.70;99271.00;;;;5078584;28;20040;-61
2023/02/19 09:37:06;;;;;;;12.15;4.97;;;;;11.70;99279.00;;;;5081174;28;20041;-61
2023/02/19 09:39:34;;;;;;;9.05;5.55;;;;;11.70;99280.00;;;;5084510;28;20044;-62
2023/02/19 09:42:14;;;;;;;6.90;4.90;;;;;11.80;99278.00;;;;5077948;28;20044;-61
2023/02/19 09:44:43;;;;;;;8.75;5.38;;;;;11.70;99283.00;;;;5073343;28;20045;-62
2023/02/19 09:47:22;;;;;;;8.48;5.38;;;;;11.80;99297.00;;;;5074902;28;20101;-61
2023/02/19 09:49:53;;;;;;;8.88;5.18;;;;;11.90;99306.00;;;;5074697;28;20513;-61
2023/02/19 09:52:32;;;;;;;9.68;5.68;;;;;11.90;99317.00;;;;5073691;28;20052;-61
2023/02/19 09:55:12;;;;;;;7.97;5.72;;;;;11.90;99325.00;;;;5074209;28;20051;-62
2023/02/19 09:57:39;;;;;;;11.38;6.13;;;;;11.80;99316.00;;;;5075222;28;20132;-61
2023/02/19 10:00:21;;;;;;;11.90;7.20;;;;;11.70;99325.00;;;;5075137;28;20090;-61
2023/02/19 10:02:54;;;;;;;11.13;7.60;;;;;11.70;99309.00;;;;5074411;28;20041;-62
2023/02/19 10:05:22;;;;;;;13.07;8.07;;;;;11.70;99308.00;;;;5073882;28;20056;-61
2023/02/19 10:07:51;;;;;;;11.60;8.35;;;;;11.80;99312.00;;;;5074869;28;20055;-61
2023/02/19 10:10:24;;;;;;;13.45;9.13;;;;;11.70;99306.00;;;;5074948;28;20047;-62
2023/02/19 10:12:54;;;;;;;13.55;9.25;;;;;11.60;99315.00;;;;5074978;28;20071;-61
2023/02/19 10:15:27;;;;;;;11.57;8.98;;;;;11.40;99319.00;;;;5075294;28;20044;-61
2023/02/19 10:17:54;;;;;;;14.77;10.43;;;;;11.40;99321.00;;;;5073953;28;20106;-62
2023/02/19 10:20:25;;;;;;;16.50;10.43;;;;;11.50;99319.00;;;;5074018;28;20098;-62
2023/02/19 10:23:02;;;;;;;15.05;10.25;;;;;11.60;99322.00;;;;5073815;28;20054;-63
2023/02/19 10:25:29;;;;;;;13.98;9.25;;;;;11.60;99329.00;;;;5073111;28;20489;-62
2023/02/19 10:28:00;;;;;;;15.95;9.93;;;;;11.60;99336.00;;;;5073522;28;20048;-62
2023/02/19 10:30:34;;;;;;;14.50;9.25;;;;;11.70;99331.00;;;;5073374;28;20044;-63
2023/02/19 10:33:13;;;;;;;12.35;8.80;;;;;11.70;99341.00;;;;5073673;28;20098;-62
2023/02/19 10:35:59;;;;;;;9.98;8.05;;;;;11.70;99336.00;;;;5072909;28;20070;-62
2023/02/19 10:38:30;;;;;;;11.70;7.93;;;;;11.70;99331.00;;;;5073501;28;20052;-61
2023/02/19 10:41:05;;;;;;;10.88;8.35;;;;;11.70;99334.00;;;;5073301;28;20041;-61
2023/02/19 10:43:38;;;;;;;10.48;8.40;;;;;11.70;99342.00;;;;5073550;28;20044;-60
2023/02/19 10:46:14;;;;;;;12.20;8.02;;;;;11.80;99330.00;;;;5073057;28;20040;-61
2023/02/19 10:48:46;;;;;;;13.52;9.05;;;;;11.80;99329.00;;;;5073389;28;20458;-61
2023/02/19 10:51:20;;;;;;;11.82;7.82;;;;;11.90;99314.00;;;;5073222;28;20459;-62
2023/02/19 10:53:49;;;;;;;11.90;7.85;;;;;12.00;99319.00;;;;5073426;28;20053;-60
2023/02/19 10:56:23;;;;;;;9.82;7.07;;;;;12.20;99311.00;;;;5072580;28;20037;-59
2023/02/19 10:58:50;;;;;;;9.73;6.75;;;;;12.50;99314.00;;;;5073528;28;20112;-62
2023/02/19 11:01:18;;;;;;;9.10;7.65;;;;;12.90;99325.00;;;;5073074;28;20053;-62
2023/02/19 11:03:47;;;;;;;10.32;6.40;;;;;13.00;99337.00;;;;5072771;28;20409;-62
2023/02/19 11:06:16;;;;;;;12.98;6.55;;;;;13.00;99337.00;;;;5072509;28;20444;-62
2023/02/19 11:08:57;;;;;;;11.52;6.40;;;;;13.00;99346.00;;;;5072780;28;20045;-62
2023/02/19 11:11:32;;;;;;;12.43;6.07;;;;;12.90;99352.00;;;;5072944;28;20048;-61
2023/02/19 11:14:03;;;;;;;9.88;5.72;;;;;12.90;99342.00;;;;5071360;28;20072;-62
2023/02/19 11:16:42;;;;;;;10.02;4.70;;;;;13.00;99348.00;;;;5071659;28;20052;-62
2023/02/19 11:19:38;;;;;;;6.68;4.40;;;;;13.00;99355.00;;;;5072675;28;20563;-63
2023/02/19 11:22:31;;;;;;;6.28;3.80;;;;;13.00;99369.00;;;;5072598;28;20581;-62
2023/02/19 11:25:05;;;;;;;7.15;3.30;;;;;13.00;99364.00;;;;5070659;28;20037;-63
2023/02/19 11:27:32;;;;;;;7.32;3.58;;;;;13.00;99383.00;;;;5072630;28;20040;-62
2023/02/19 11:30:30;;;;;;;6.00;3.30;;;;;12.90;99388.00;;;;5072491;28;20044;-62
2023/02/19 11:33:18;;;;;;;4.63;3.00;;;;;12.80;99386.00;;;;5071270;28;20097;-60
2023/02/19 11:35:46;;;;;;;7.15;3.80;;;;;12.70;99378.00;;;;5070556;28;20049;-61
2023/02/19 11:38:15;;;;;;;6.78;3.33;;;;;12.60;99376.00;;;;5072387;28;20040;-62
2023/02/19 11:40:59;;;;;;;4.53;3.10;;;;;12.60;99369.00;;;;5072492;28;20323;-62
2023/02/19 11:43:41;;;;;;;6.22;3.10;;;;;12.60;99350.00;;;;5072257;28;20127;-61
2023/02/19 11:46:29;;;;;;;9.63;3.40;;;;;12.60;99351.00;;;;5070605;28;20036;-62
2023/02/19 11:49:16;;;;;;;10.57;3.63;;;;;12.70;99362.00;;;;5072251;28;20106;-62
2023/02/19 11:51:43;;;;;;;6.25;4.05;;;;;12.70;99359.00;;;;5072454;28;20037;-62
2023/02/19 11:54:42;;;;;;;6.38;3.88;;;;;12.70;99352.00;;;;5071760;28;20124;-61
2023/02/19 11:57:33;;;;;;;7.07;4.03;;;;;12.90;99354.00;;;;5072293;28;20098;-63
2023/02/19 12:00:28;;;;;;;9.77;4.28;;;;;12.90;99341.00;;;;5072272;28;20517;-62
2023/02/19 12:03:23;;;;;;;5.72;4.05;;;;;13.10;99346.00;;;;5072291;28;20044;-61
2023/02/19 12:06:22;;;;;;;7.80;4.43;;;;;13.30;99349.00;;;;5071478;28;20481;-62
2023/02/19 12:09:10;;;;;;;10.40;5.60;;;;;13.60;99354.00;;;;5072299;28;20110;-63
2023/02/19 12:11:59;;;;;;;7.40;4.60;;;;;13.70;99350.00;;;;5071994;28;20041;-62
2023/02/19 12:14:55;;;;;;;5.85;4.05;;;;;13.50;99364.00;;;;5071513;28;20056;-62
2023/02/19 12:17:32;;;;;;;7.90;3.75;;;;;13.50;99361.00;;;;5075688;28;20043;-62
2023/02/19 12:20:36;;;;;;;5.47;3.53;;;;;13.60;99371.00;;;;5076043;28;20562;-62
2023/02/19 12:23:40;;;;;;;7.32;3.47;;;;;13.60;99369.00;;;;5074940;28;20040;-62
2023/02/19 12:26:35;;;;;;;8.00;3.88;;;;;13.50;99367.00;;;;5075519;28;20443;-62
2023/02/19 12:29:21;;;;;;;5.32;3.08;;;;;13.40;99371.00;;;;5076463;28;20094;-62
2023/02/19 12:32:14;;;;;;;6.15;2.65;;;;;13.50;99367.00;;;;5075955;28;20047;-62
2023/02/19 12:34:41;;;;;;;3.92;2.15;;;;;13.40;99368.00;;;;5075826;28;20052;-61
2023/02/19 12:37:13;;;;;;;5.57;2.30;;;;;13.40;99372.00;;;;5076187;28;20047;-61
2023/02/19 12:40:26;;;;;;;6.43;2.45;;;;;13.30;99369.00;;;;5076023;28;20084;-61
2023/02/19 12:43:02;;;;;;;6.05;2.22;;;;;13.40;99371.00;;;;5075774;28;20086;-61
2023/02/19 12:45:43;;;;;;;6.28;2.20;;;;;13.40;99363.00;;;;5076266;28;20409;-61
2023/02/19 12:48:24;;;;;;;4.28;2.45;;;;;13.30;99362.00;;;;5075999;28;20044;-61
2023/02/19 12:50:55;;;;;;;7.57;2.75;;;;;13.40;99356.00;;;;5075806;28;20044;-61
2023/02/19 12:53:31;;;;;;;5.07;3.20;;;;;13.30;99368.00;;;;5075822;28;20048;-61
2023/02/19 12:56:00;;;;;;;7.13;3.50;;;;;13.30;99362.00;;;;5074784;28;20036;-60
2023/02/19 12:58:37;;;;;;;6.97;3.00;;;;;13.30;99368.00;;;;5075186;28;20056;-61
2023/02/19 13:01:06;;;;;;;7.07;3.33;;;;;13.40;99373.00;;;;5074312;28;20449;-61
2023/02/19 13:03:44;;;;;;;6.35;2.85;;;;;13.40;99373.00;;;;5074323;28;20052;-62
2023/02/19 13:06:33;;;;;;;7.57;3.38;;;;;13.50;99366.00;;;;5074760;28;20040;-61
2023/02/19 13:09:18;;;;;;;7.10;4.00;;;;;13.50;99356.00;;;;5075609;28;20098;-62